sensor_id;sensor_type;location;lat;lon;timestamp;temperature;humidity
42841;DHT22;28491;46.898;7.660;2022-11-15T00:02:18;5.90;99.90
42841;DHT22;28491;46.898;7.660;2022-11-15T00:04:44;5.90;99.90
42841;DHT22;28491;46.898;7.660;2022-11-15T00:07:09;5.90;99.90
42841;DHT22;28491;46.898;7.660;2022-11-15T00:09:35;6.00;99.90
42841;DHT22;28491;46.898;7.660;2022-11-15T00:12:00;6.00;99.90
42841;DHT22;28491;46.898;7.660;2022-11-15T00:14:26;6.00;99.90
42841;DHT22;28491;46.898;7.660;2022-11-15T00:16:51;6.00;99.90
42841;DHT22;28491;46.898;7.660;2022-11-15T00:19:17;5.90;99.90
42841;DHT22;28491;46.898;7.660;2022-11-15T00:21:42;6.00;99.90
42841;DHT22;28491;46.898;7.660;2022-11-15T00:24:08;6.00;99.90
42841;DHT22;28491;46.898;7.660;2022-11-15T00:26:34;6.00;99.90
42841;DHT22;28491;46.898;7.660;2022-11-15T00:28:59;6.00;99.90
42841;DHT22;28491;46.898;7.660;2022-11-15T00:31:25;6.00;99.90
42841;DHT22;28491;46.898;7.660;2022-11-15T00:33:50;6.00;99.90
42841;DHT22;28491;46.898;7.660;2022-11-15T00:36:16;6.00;99.90
42841;DHT22;28491;46.898;7.660;2022-11-15T00:38:41;6.00;99.90
42841;DHT22;28491;46.898;7.660;2022-11-15T00:41:07;6.00;99.90
42841;DHT22;28491;46.898;7.660;2022-11-15T00:43:33;6.10;99.90
42841;DHT22;28491;46.898;7.660;2022-11-15T00:45:59;6.10;99.90
42841;DHT22;28491;46.898;7.660;2022-11-15T00:48:25;6.10;99.90
42841;DHT22;28491;46.898;7.660;2022-11-15T00:50:50;6.10;99.90
42841;DHT22;28491;46.898;7.660;2022-11-15T00:53:16;6.20;99.90
42841;DHT22;28491;46.898;7.660;2022-11-15T00:55:42;6.20;99.90
42841;DHT22;28491;46.898;7.660;2022-11-15T00:58:08;6.20;99.90
42841;DHT22;28491;46.898;7.660;2022-11-15T01:00:34;6.20;99.90
42841;DHT22;28491;46.898;7.660;2022-11-15T01:03:02;6.30;99.90
42841;DHT22;28491;46.898;7.660;2022-11-15T01:05:28;6.30;99.90
42841;DHT22;28491;46.898;7.660;2022-11-15T01:07:54;6.30;99.90
42841;DHT22;28491;46.898;7.660;2022-11-15T01:10:20;6.30;99.90
42841;DHT22;28491;46.898;7.660;2022-11-15T01:12:46;6.30;99.90
42841;DHT22;28491;46.898;7.660;2022-11-15T01:15:12;6.30;99.90
42841;DHT22;28491;46.898;7.660;2022-11-15T01:17:37;6.20;99.90
42841;DHT22;28491;46.898;7.660;2022-11-15T01:20:03;6.10;99.90
42841;DHT22;28491;46.898;7.660;2022-11-15T01:22:29;6.00;99.90
42841;DHT22;28491;46.898;7.660;2022-11-15T01:24:55;6.00;99.90
42841;DHT22;28491;46.898;7.660;2022-11-15T01:27:20;6.10;99.90
42841;DHT22;28491;46.898;7.660;2022-11-15T01:29:46;6.00;99.90
42841;DHT22;28491;46.898;7.660;2022-11-15T01:32:11;6.00;99.90
42841;DHT22;28491;46.898;7.660;2022-11-15T01:34:37;6.00;99.90
42841;DHT22;28491;46.898;7.660;2022-11-15T01:37:02;6.00;99.90
42841;DHT22;28491;46.898;7.660;2022-11-15T01:39:28;6.00;99.90
42841;DHT22;28491;46.898;7.660;2022-11-15T01:41:54;6.00;99.90
42841;DHT22;28491;46.898;7.660;2022-11-15T01:44:39;5.90;99.90
42841;DHT22;28491;46.898;7.660;2022-11-15T01:47:11;6.00;99.90
42841;DHT22;28491;46.898;7.660;2022-11-15T01:49:40;6.00;99.90
42841;DHT22;28491;46.898;7.660;2022-11-15T01:52:13;5.90;99.90
42841;DHT22;28491;46.898;7.660;2022-11-15T01:54:39;5.90;99.90
42841;DHT22;28491;46.898;7.660;2022-11-15T01:57:08;5.90;99.90
42841;DHT22;28491;46.898;7.660;2022-11-15T01:59:36;5.90;99.90
42841;DHT22;28491;46.898;7.660;2022-11-15T02:02:02;5.90;99.90
42841;DHT22;28491;46.898;7.660;2022-11-15T02:04:29;5.90;99.90
42841;DHT22;28491;46.898;7.660;2022-11-15T02:06:56;5.80;99.90
42841;DHT22;28491;46.898;7.660;2022-11-15T02:09:22;5.80;99.90
42841;DHT22;28491;46.898;7.660;2022-11-15T02:11:48;5.80;99.90
42841;DHT22;28491;46.898;7.660;2022-11-15T02:14:17;5.80;99.90
42841;DHT22;28491;46.898;7.660;2022-11-15T02:16:52;5.70;99.90
42841;DHT22;28491;46.898;7.660;2022-11-15T02:24:55;5.70;99.90
42841;DHT22;28491;46.898;7.660;2022-11-15T02:28:12;5.70;99.90
42841;DHT22;28491;46.898;7.660;2022-11-15T02:33:35;5.80;99.90
42841;DHT22;28491;46.898;7.660;2022-11-15T02:36:05;5.70;99.90
42841;DHT22;28491;46.898;7.660;2022-11-15T02:38:52;5.70;99.90
42841;DHT22;28491;46.898;7.660;2022-11-15T02:41:47;5.70;99.90
42841;DHT22;28491;46.898;7.660;2022-11-15T02:44:25;5.80;99.90
42841;DHT22;28491;46.898;7.660;2022-11-15T02:46:59;5.70;99.90
42841;DHT22;28491;46.898;7.660;2022-11-15T02:49:47;5.80;99.90
42841;DHT22;28491;46.898;7.660;2022-11-15T02:52:17;5.80;99.90
42841;DHT22;28491;46.898;7.660;2022-11-15T02:54:42;5.80;99.90
42841;DHT22;28491;46.898;7.660;2022-11-15T02:57:17;5.80;99.90
42841;DHT22;28491;46.898;7.660;2022-11-15T03:00:08;5.80;99.90
42841;DHT22;28491;46.898;7.660;2022-11-15T03:05:57;5.70;99.90
42841;DHT22;28491;46.898;7.660;2022-11-15T03:09:03;5.60;99.90
42841;DHT22;28491;46.898;7.660;2022-11-15T03:11:34;5.70;99.90
42841;DHT22;28491;46.898;7.660;2022-11-15T03:14:21;5.70;99.90
42841;DHT22;28491;46.898;7.660;2022-11-15T03:17:05;5.70;99.90
42841;DHT22;28491;46.898;7.660;2022-11-15T03:22:12;5.70;99.90
42841;DHT22;28491;46.898;7.660;2022-11-15T03:24:40;5.80;99.90
42841;DHT22;28491;46.898;7.660;2022-11-15T03:27:09;5.80;99.90
42841;DHT22;28491;46.898;7.660;2022-11-15T03:29:39;5.80;99.90
42841;DHT22;28491;46.898;7.660;2022-11-15T03:32:11;5.80;99.90
42841;DHT22;28491;46.898;7.660;2022-11-15T03:35:03;5.90;99.90
42841;DHT22;28491;46.898;7.660;2022-11-15T03:38:11;5.90;99.90
42841;DHT22;28491;46.898;7.660;2022-11-15T03:40:41;5.90;99.90
42841;DHT22;28491;46.898;7.660;2022-11-15T03:43:19;6.00;99.90
42841;DHT22;28491;46.898;7.660;2022-11-15T03:45:54;6.00;99.90
42841;DHT22;28491;46.898;7.660;2022-11-15T03:48:25;6.00;99.90
42841;DHT22;28491;46.898;7.660;2022-11-15T03:50:52;6.00;99.90
42841;DHT22;28491;46.898;7.660;2022-11-15T03:53:17;6.10;99.90
42841;DHT22;28491;46.898;7.660;2022-11-15T03:55:43;6.10;99.90
42841;DHT22;28491;46.898;7.660;2022-11-15T03:58:09;6.10;99.90
42841;DHT22;28491;46.898;7.660;2022-11-15T04:00:34;6.10;99.90
42841;DHT22;28491;46.898;7.660;2022-11-15T04:03:00;6.10;99.90
42841;DHT22;28491;46.898;7.660;2022-11-15T04:05:25;6.20;99.90
42841;DHT22;28491;46.898;7.660;2022-11-15T04:07:51;6.20;99.90
42841;DHT22;28491;46.898;7.660;2022-11-15T04:10:17;6.20;99.90
42841;DHT22;28491;46.898;7.660;2022-11-15T04:12:44;6.20;99.90
42841;DHT22;28491;46.898;7.660;2022-11-15T04:15:17;6.20;99.90
42841;DHT22;28491;46.898;7.660;2022-11-15T04:17:50;6.20;99.90
42841;DHT22;28491;46.898;7.660;2022-11-15T04:20:22;6.10;99.90
42841;DHT22;28491;46.898;7.660;2022-11-15T04:23:23;6.00;99.90
42841;DHT22;28491;46.898;7.660;2022-11-15T04:26:16;6.00;99.90
42841;DHT22;28491;46.898;7.660;2022-11-15T04:28:43;5.90;99.90
42841;DHT22;28491;46.898;7.660;2022-11-15T04:31:27;6.00;99.90
42841;DHT22;28491;46.898;7.660;2022-11-15T04:33:53;6.00;99.90
42841;DHT22;28491;46.898;7.660;2022-11-15T04:36:20;6.00;99.90
42841;DHT22;28491;46.898;7.660;2022-11-15T04:39:04;6.00;99.90
42841;DHT22;28491;46.898;7.660;2022-11-15T04:41:30;6.00;99.90
42841;DHT22;28491;46.898;7.660;2022-11-15T04:43:56;6.00;99.90
42841;DHT22;28491;46.898;7.660;2022-11-15T04:46:22;6.00;99.90
42841;DHT22;28491;46.898;7.660;2022-11-15T04:48:49;6.00;99.90
42841;DHT22;28491;46.898;7.660;2022-11-15T04:51:15;6.00;99.90
42841;DHT22;28491;46.898;7.660;2022-11-15T04:53:40;6.00;99.90
42841;DHT22;28491;46.898;7.660;2022-11-15T04:56:06;6.00;99.90
42841;DHT22;28491;46.898;7.660;2022-11-15T04:58:32;6.00;99.90
42841;DHT22;28491;46.898;7.660;2022-11-15T05:00:57;6.00;99.90
42841;DHT22;28491;46.898;7.660;2022-11-15T05:03:23;6.10;99.90
42841;DHT22;28491;46.898;7.660;2022-11-15T05:06:07;6.00;99.90
42841;DHT22;28491;46.898;7.660;2022-11-15T05:08:32;6.00;99.90
42841;DHT22;28491;46.898;7.660;2022-11-15T05:10:58;6.00;99.90
42841;DHT22;28491;46.898;7.660;2022-11-15T05:13:24;6.00;99.90
42841;DHT22;28491;46.898;7.660;2022-11-15T05:15:49;6.00;99.90
42841;DHT22;28491;46.898;7.660;2022-11-15T05:18:15;6.00;99.90
42841;DHT22;28491;46.898;7.660;2022-11-15T05:20:40;6.00;99.90
42841;DHT22;28491;46.898;7.660;2022-11-15T05:23:06;6.00;99.90
42841;DHT22;28491;46.898;7.660;2022-11-15T05:25:32;6.00;99.90
42841;DHT22;28491;46.898;7.660;2022-11-15T05:27:57;6.00;99.90
42841;DHT22;28491;46.898;7.660;2022-11-15T05:30:23;6.00;99.90
42841;DHT22;28491;46.898;7.660;2022-11-15T05:32:48;5.90;99.90
42841;DHT22;28491;46.898;7.660;2022-11-15T05:35:24;5.90;99.90
42841;DHT22;28491;46.898;7.660;2022-11-15T05:37:52;5.90;99.90
42841;DHT22;28491;46.898;7.660;2022-11-15T05:40:18;5.90;99.90
42841;DHT22;28491;46.898;7.660;2022-11-15T05:42:44;5.90;99.90
42841;DHT22;28491;46.898;7.660;2022-11-15T05:45:11;5.90;99.90
42841;DHT22;28491;46.898;7.660;2022-11-15T05:47:37;5.90;99.90
42841;DHT22;28491;46.898;7.660;2022-11-15T05:50:05;6.00;99.90
42841;DHT22;28491;46.898;7.660;2022-11-15T05:52:34;5.90;99.90
42841;DHT22;28491;46.898;7.660;2022-11-15T05:55:02;5.90;99.90
42841;DHT22;28491;46.898;7.660;2022-11-15T05:57:30;5.90;99.90
42841;DHT22;28491;46.898;7.660;2022-11-15T05:59:56;6.00;99.90
42841;DHT22;28491;46.898;7.660;2022-11-15T06:02:21;6.00;99.90
42841;DHT22;28491;46.898;7.660;2022-11-15T06:04:47;6.00;99.90
42841;DHT22;28491;46.898;7.660;2022-11-15T06:07:12;6.00;99.90
42841;DHT22;28491;46.898;7.660;2022-11-15T06:09:38;6.00;99.90
42841;DHT22;28491;46.898;7.660;2022-11-15T06:12:03;6.10;99.90
42841;DHT22;28491;46.898;7.660;2022-11-15T06:14:29;6.10;99.90
42841;DHT22;28491;46.898;7.660;2022-11-15T06:16:55;6.10;99.90
42841;DHT22;28491;46.898;7.660;2022-11-15T06:19:20;6.10;99.90
42841;DHT22;28491;46.898;7.660;2022-11-15T06:21:46;6.10;99.90
42841;DHT22;28491;46.898;7.660;2022-11-15T06:24:11;6.10;99.90
42841;DHT22;28491;46.898;7.660;2022-11-15T06:26:37;6.10;99.90
42841;DHT22;28491;46.898;7.660;2022-11-15T06:29:03;6.00;99.90
42841;DHT22;28491;46.898;7.660;2022-11-15T06:31:29;6.00;99.90
42841;DHT22;28491;46.898;7.660;2022-11-15T06:33:55;6.00;99.90
42841;DHT22;28491;46.898;7.660;2022-11-15T06:36:21;6.10;99.90
42841;DHT22;28491;46.898;7.660;2022-11-15T06:38:46;6.00;99.90
42841;DHT22;28491;46.898;7.660;2022-11-15T06:41:13;6.10;99.90
42841;DHT22;28491;46.898;7.660;2022-11-15T06:43:39;6.00;99.90
42841;DHT22;28491;46.898;7.660;2022-11-15T06:46:05;6.10;99.90
42841;DHT22;28491;46.898;7.660;2022-11-15T06:48:33;6.10;99.90
42841;DHT22;28491;46.898;7.660;2022-11-15T06:51:00;6.10;99.90
42841;DHT22;28491;46.898;7.660;2022-11-15T06:53:27;6.10;99.90
42841;DHT22;28491;46.898;7.660;2022-11-15T06:55:53;6.10;99.90
42841;DHT22;28491;46.898;7.660;2022-11-15T06:58:23;6.10;99.90
42841;DHT22;28491;46.898;7.660;2022-11-15T07:00:48;6.10;99.90
42841;DHT22;28491;46.898;7.660;2022-11-15T07:03:14;6.10;99.90
42841;DHT22;28491;46.898;7.660;2022-11-15T07:05:39;6.10;99.90
42841;DHT22;28491;46.898;7.660;2022-11-15T07:08:05;6.10;99.90
42841;DHT22;28491;46.898;7.660;2022-11-15T07:10:30;6.10;99.90
42841;DHT22;28491;46.898;7.660;2022-11-15T07:12:56;6.10;99.90
42841;DHT22;28491;46.898;7.660;2022-11-15T07:15:24;6.10;99.90
42841;DHT22;28491;46.898;7.660;2022-11-15T07:17:50;6.10;99.90
42841;DHT22;28491;46.898;7.660;2022-11-15T07:20:16;6.20;99.90
42841;DHT22;28491;46.898;7.660;2022-11-15T07:22:42;6.20;99.90
42841;DHT22;28491;46.898;7.660;2022-11-15T07:25:08;6.20;99.90
42841;DHT22;28491;46.898;7.660;2022-11-15T07:27:34;6.20;99.90
42841;DHT22;28491;46.898;7.660;2022-11-15T07:30:00;6.20;99.90
42841;DHT22;28491;46.898;7.660;2022-11-15T07:32:25;6.20;99.90
42841;DHT22;28491;46.898;7.660;2022-11-15T07:34:51;6.20;99.90
42841;DHT22;28491;46.898;7.660;2022-11-15T07:37:16;6.30;99.90
42841;DHT22;28491;46.898;7.660;2022-11-15T07:39:43;6.30;99.90
42841;DHT22;28491;46.898;7.660;2022-11-15T07:42:09;6.30;99.90
42841;DHT22;28491;46.898;7.660;2022-11-15T07:44:53;6.40;99.90
42841;DHT22;28491;46.898;7.660;2022-11-15T07:47:18;6.40;99.90
42841;DHT22;28491;46.898;7.660;2022-11-15T07:49:44;6.40;99.90
42841;DHT22;28491;46.898;7.660;2022-11-15T07:52:11;6.40;99.90
42841;DHT22;28491;46.898;7.660;2022-11-15T07:54:37;6.40;99.90
42841;DHT22;28491;46.898;7.660;2022-11-15T07:57:02;6.40;99.90
42841;DHT22;28491;46.898;7.660;2022-11-15T07:59:28;6.50;99.90
42841;DHT22;28491;46.898;7.660;2022-11-15T08:01:53;6.50;99.90
42841;DHT22;28491;46.898;7.660;2022-11-15T08:04:19;6.60;99.90
42841;DHT22;28491;46.898;7.660;2022-11-15T08:06:44;6.60;99.90
42841;DHT22;28491;46.898;7.660;2022-11-15T08:09:10;6.60;99.90
42841;DHT22;28491;46.898;7.660;2022-11-15T08:11:35;6.70;99.90
42841;DHT22;28491;46.898;7.660;2022-11-15T08:14:01;6.60;99.90
42841;DHT22;28491;46.898;7.660;2022-11-15T08:16:26;6.70;99.90
42841;DHT22;28491;46.898;7.660;2022-11-15T08:18:52;6.70;99.90
42841;DHT22;28491;46.898;7.660;2022-11-15T08:21:19;6.70;99.90
42841;DHT22;28491;46.898;7.660;2022-11-15T08:23:45;6.80;99.90
42841;DHT22;28491;46.898;7.660;2022-11-15T08:26:11;6.90;99.90
42841;DHT22;28491;46.898;7.660;2022-11-15T08:28:37;6.90;99.90
42841;DHT22;28491;46.898;7.660;2022-11-15T08:31:03;6.90;99.90
42841;DHT22;28491;46.898;7.660;2022-11-15T08:33:30;6.90;99.90
42841;DHT22;28491;46.898;7.660;2022-11-15T08:36:00;7.00;99.90
42841;DHT22;28491;46.898;7.660;2022-11-15T08:38:26;7.00;99.90
42841;DHT22;28491;46.898;7.660;2022-11-15T08:41:00;7.00;99.90
42841;DHT22;28491;46.898;7.660;2022-11-15T08:43:26;7.00;99.90
42841;DHT22;28491;46.898;7.660;2022-11-15T08:45:51;7.10;99.90
42841;DHT22;28491;46.898;7.660;2022-11-15T08:48:17;7.00;99.90
42841;DHT22;28491;46.898;7.660;2022-11-15T08:50:42;7.10;99.90
42841;DHT22;28491;46.898;7.660;2022-11-15T08:53:09;7.20;99.90
42841;DHT22;28491;46.898;7.660;2022-11-15T08:55:39;7.20;99.90
42841;DHT22;28491;46.898;7.660;2022-11-15T08:58:05;7.10;99.90
42841;DHT22;28491;46.898;7.660;2022-11-15T09:00:30;7.20;99.90
42841;DHT22;28491;46.898;7.660;2022-11-15T09:02:56;7.20;99.90
42841;DHT22;28491;46.898;7.660;2022-11-15T09:05:21;7.20;99.90
42841;DHT22;28491;46.898;7.660;2022-11-15T09:07:47;7.30;99.90
42841;DHT22;28491;46.898;7.660;2022-11-15T09:10:13;7.30;99.80
42841;DHT22;28491;46.898;7.660;2022-11-15T09:12:38;7.30;99.60
42841;DHT22;28491;46.898;7.660;2022-11-15T09:15:05;7.30;99.60
42841;DHT22;28491;46.898;7.660;2022-11-15T09:17:31;7.40;99.60
42841;DHT22;28491;46.898;7.660;2022-11-15T09:19:57;7.40;99.50
42841;DHT22;28491;46.898;7.660;2022-11-15T09:22:22;7.50;99.50
42841;DHT22;28491;46.898;7.660;2022-11-15T09:24:48;7.50;99.40
42841;DHT22;28491;46.898;7.660;2022-11-15T09:27:13;7.50;99.20
42841;DHT22;28491;46.898;7.660;2022-11-15T09:29:39;7.60;99.50
42841;DHT22;28491;46.898;7.660;2022-11-15T09:32:05;7.60;99.40
42841;DHT22;28491;46.898;7.660;2022-11-15T09:34:30;7.60;99.60
42841;DHT22;28491;46.898;7.660;2022-11-15T09:36:56;7.60;99.60
42841;DHT22;28491;46.898;7.660;2022-11-15T09:39:21;7.60;99.60
42841;DHT22;28491;46.898;7.660;2022-11-15T09:41:57;7.70;99.60
42841;DHT22;28491;46.898;7.660;2022-11-15T09:49:53;7.80;99.10
42841;DHT22;28491;46.898;7.660;2022-11-15T09:52:19;7.80;99.00
42841;DHT22;28491;46.898;7.660;2022-11-15T09:54:48;7.90;98.90
42841;DHT22;28491;46.898;7.660;2022-11-15T09:57:22;7.80;98.70
42841;DHT22;28491;46.898;7.660;2022-11-15T09:59:52;7.90;98.60
42841;DHT22;28491;46.898;7.660;2022-11-15T10:04:59;8.00;97.70
42841;DHT22;28491;46.898;7.660;2022-11-15T10:07:37;8.00;97.90
42841;DHT22;28491;46.898;7.660;2022-11-15T10:10:28;8.10;97.70
42841;DHT22;28491;46.898;7.660;2022-11-15T10:12:54;8.20;98.30
42841;DHT22;28491;46.898;7.660;2022-11-15T10:15:21;8.20;96.20
42841;DHT22;28491;46.898;7.660;2022-11-15T10:18:14;8.30;96.90
42841;DHT22;28491;46.898;7.660;2022-11-15T10:20:52;8.40;97.30
42841;DHT22;28491;46.898;7.660;2022-11-15T10:23:22;8.50;97.10
42841;DHT22;28491;46.898;7.660;2022-11-15T10:25:51;8.60;96.00
42841;DHT22;28491;46.898;7.660;2022-11-15T10:28:22;8.60;95.50
42841;DHT22;28491;46.898;7.660;2022-11-15T10:30:53;8.70;96.20
42841;DHT22;28491;46.898;7.660;2022-11-15T10:33:26;8.70;97.00
42841;DHT22;28491;46.898;7.660;2022-11-15T10:44:03;8.80;96.80
42841;DHT22;28491;46.898;7.660;2022-11-15T10:46:34;8.70;95.80
42841;DHT22;28491;46.898;7.660;2022-11-15T10:49:18;8.70;96.50
42841;DHT22;28491;46.898;7.660;2022-11-15T10:51:57;8.70;95.80
42841;DHT22;28491;46.898;7.660;2022-11-15T10:57:00;8.70;94.50
42841;DHT22;28491;46.898;7.660;2022-11-15T10:59:32;8.70;93.50
42841;DHT22;28491;46.898;7.660;2022-11-15T11:01:59;8.80;90.30
42841;DHT22;28491;46.898;7.660;2022-11-15T11:04:25;8.80;90.20
42841;DHT22;28491;46.898;7.660;2022-11-15T11:06:58;8.90;92.00
42841;DHT22;28491;46.898;7.660;2022-11-15T11:09:35;8.90;91.50
42841;DHT22;28491;46.898;7.660;2022-11-15T11:12:03;8.90;91.80
42841;DHT22;28491;46.898;7.660;2022-11-15T11:14:30;9.00;92.50
42841;DHT22;28491;46.898;7.660;2022-11-15T11:17:09;9.10;94.90
42841;DHT22;28491;46.898;7.660;2022-11-15T11:19:45;9.10;95.10
42841;DHT22;28491;46.898;7.660;2022-11-15T11:30:23;9.20;95.70
42841;DHT22;28491;46.898;7.660;2022-11-15T11:33:17;9.30;96.30
42841;DHT22;28491;46.898;7.660;2022-11-15T11:42:04;9.30;94.20
42841;DHT22;28491;46.898;7.660;2022-11-15T11:47:31;9.20;94.60
42841;DHT22;28491;46.898;7.660;2022-11-15T11:50:21;9.20;95.90
42841;DHT22;28491;46.898;7.660;2022-11-15T11:55:57;9.10;95.00
42841;DHT22;28491;46.898;7.660;2022-11-15T11:58:41;9.10;94.80
42841;DHT22;28491;46.898;7.660;2022-11-15T12:01:11;9.00;94.40
42841;DHT22;28491;46.898;7.660;2022-11-15T12:03:44;9.00;93.20
42841;DHT22;28491;46.898;7.660;2022-11-15T12:09:41;9.00;95.00
42841;DHT22;28491;46.898;7.660;2022-11-15T12:12:16;9.00;94.70
42841;DHT22;28491;46.898;7.660;2022-11-15T12:14:48;9.00;93.70
42841;DHT22;28491;46.898;7.660;2022-11-15T12:17:17;9.00;93.90
42841;DHT22;28491;46.898;7.660;2022-11-15T12:19:45;9.10;95.00
42841;DHT22;28491;46.898;7.660;2022-11-15T12:22:19;9.20;95.70
42841;DHT22;28491;46.898;7.660;2022-11-15T12:25:01;9.30;95.90
42841;DHT22;28491;46.898;7.660;2022-11-15T12:27:37;9.40;93.70
42841;DHT22;28491;46.898;7.660;2022-11-15T12:30:12;9.40;92.00
42841;DHT22;28491;46.898;7.660;2022-11-15T12:32:39;9.50;92.30
42841;DHT22;28491;46.898;7.660;2022-11-15T12:35:35;9.40;91.00
42841;DHT22;28491;46.898;7.660;2022-11-15T12:38:02;9.40;93.30
42841;DHT22;28491;46.898;7.660;2022-11-15T12:40:32;9.30;96.20
42841;DHT22;28491;46.898;7.660;2022-11-15T12:45:38;9.20;96.10
42841;DHT22;28491;46.898;7.660;2022-11-15T12:53:29;9.30;98.00
42841;DHT22;28491;46.898;7.660;2022-11-15T12:58:44;9.50;98.00
42841;DHT22;28491;46.898;7.660;2022-11-15T13:06:46;9.80;95.80
42841;DHT22;28491;46.898;7.660;2022-11-15T13:12:02;9.70;93.50
42841;DHT22;28491;46.898;7.660;2022-11-15T13:19:46;9.70;96.40
42841;DHT22;28491;46.898;7.660;2022-11-15T13:22:12;9.80;96.30
42841;DHT22;28491;46.898;7.660;2022-11-15T13:24:56;9.90;95.70
42841;DHT22;28491;46.898;7.660;2022-11-15T13:27:22;9.90;96.20
42841;DHT22;28491;46.898;7.660;2022-11-15T13:29:48;10.00;95.50
42841;DHT22;28491;46.898;7.660;2022-11-15T13:32:15;9.90;96.30
42841;DHT22;28491;46.898;7.660;2022-11-15T13:34:46;10.00;97.10
42841;DHT22;28491;46.898;7.660;2022-11-15T13:37:28;10.00;97.70
42841;DHT22;28491;46.898;7.660;2022-11-15T13:41:10;10.10;98.40
42841;DHT22;28491;46.898;7.660;2022-11-15T13:42:57;10.10;98.10
42841;DHT22;28491;46.898;7.660;2022-11-15T13:45:23;10.10;97.10
42841;DHT22;28491;46.898;7.660;2022-11-15T13:47:56;10.20;96.40
42841;DHT22;28491;46.898;7.660;2022-11-15T13:50:26;10.20;96.00
42841;DHT22;28491;46.898;7.660;2022-11-15T13:52:52;10.20;96.20
42841;DHT22;28491;46.898;7.660;2022-11-15T13:55:21;10.20;95.20
42841;DHT22;28491;46.898;7.660;2022-11-15T13:57:50;10.10;94.20
42841;DHT22;28491;46.898;7.660;2022-11-15T14:00:43;10.10;94.40
42841;DHT22;28491;46.898;7.660;2022-11-15T14:03:20;10.00;94.50
42841;DHT22;28491;46.898;7.660;2022-11-15T14:06:10;9.80;94.30
42841;DHT22;28491;46.898;7.660;2022-11-15T14:08:57;9.70;94.60
42841;DHT22;28491;46.898;7.660;2022-11-15T14:11:22;9.60;95.10
42841;DHT22;28491;46.898;7.660;2022-11-15T14:16:37;9.60;96.60
42841;DHT22;28491;46.898;7.660;2022-11-15T14:19:04;9.60;98.50
42841;DHT22;28491;46.898;7.660;2022-11-15T14:21:31;9.50;98.30
42841;DHT22;28491;46.898;7.660;2022-11-15T14:26:41;9.50;98.10
42841;DHT22;28491;46.898;7.660;2022-11-15T14:31:53;9.50;99.40
42841;DHT22;28491;46.898;7.660;2022-11-15T14:34:19;9.50;99.80
42841;DHT22;28491;46.898;7.660;2022-11-15T14:36:46;9.50;99.60
42841;DHT22;28491;46.898;7.660;2022-11-15T14:39:12;9.50;99.60
42841;DHT22;28491;46.898;7.660;2022-11-15T14:41:37;9.50;99.70
42841;DHT22;28491;46.898;7.660;2022-11-15T14:44:04;9.40;99.50
42841;DHT22;28491;46.898;7.660;2022-11-15T14:46:30;9.40;99.30
42841;DHT22;28491;46.898;7.660;2022-11-15T14:48:56;9.40;99.20
42841;DHT22;28491;46.898;7.660;2022-11-15T14:51:22;9.40;99.00
42841;DHT22;28491;46.898;7.660;2022-11-15T14:53:48;9.40;99.20
42841;DHT22;28491;46.898;7.660;2022-11-15T14:56:14;9.30;99.40
42841;DHT22;28491;46.898;7.660;2022-11-15T14:58:41;9.40;99.60
42841;DHT22;28491;46.898;7.660;2022-11-15T15:01:25;9.30;99.40
42841;DHT22;28491;46.898;7.660;2022-11-15T15:03:52;9.30;99.20
42841;DHT22;28491;46.898;7.660;2022-11-15T15:06:21;9.30;98.80
42841;DHT22;28491;46.898;7.660;2022-11-15T15:08:46;9.30;98.50
42841;DHT22;28491;46.898;7.660;2022-11-15T15:11:33;9.30;98.70
42841;DHT22;28491;46.898;7.660;2022-11-15T15:13:58;9.30;99.20
42841;DHT22;28491;46.898;7.660;2022-11-15T15:16:26;9.30;99.50
42841;DHT22;28491;46.898;7.660;2022-11-15T15:18:52;9.30;99.60
42841;DHT22;28491;46.898;7.660;2022-11-15T15:21:26;9.30;99.80
42841;DHT22;28491;46.898;7.660;2022-11-15T15:23:56;9.30;99.90
42841;DHT22;28491;46.898;7.660;2022-11-15T15:26:23;9.20;99.90
42841;DHT22;28491;46.898;7.660;2022-11-15T15:28:49;9.20;99.90
42841;DHT22;28491;46.898;7.660;2022-11-15T15:31:16;9.10;99.90
42841;DHT22;28491;46.898;7.660;2022-11-15T15:33:42;9.10;99.90
42841;DHT22;28491;46.898;7.660;2022-11-15T15:36:17;9.10;99.90
42841;DHT22;28491;46.898;7.660;2022-11-15T15:38:42;9.10;99.90
42841;DHT22;28491;46.898;7.660;2022-11-15T15:41:10;9.10;99.90
42841;DHT22;28491;46.898;7.660;2022-11-15T15:43:36;9.00;99.90
42841;DHT22;28491;46.898;7.660;2022-11-15T15:46:02;9.00;99.90
42841;DHT22;28491;46.898;7.660;2022-11-15T15:48:27;8.90;99.90
42841;DHT22;28491;46.898;7.660;2022-11-15T15:50:53;8.90;99.90
42841;DHT22;28491;46.898;7.660;2022-11-15T15:53:18;8.90;99.90
42841;DHT22;28491;46.898;7.660;2022-11-15T15:55:44;8.90;99.90
42841;DHT22;28491;46.898;7.660;2022-11-15T15:58:09;8.80;99.90
42841;DHT22;28491;46.898;7.660;2022-11-15T16:00:35;8.80;99.90
42841;DHT22;28491;46.898;7.660;2022-11-15T16:03:01;8.80;99.90
42841;DHT22;28491;46.898;7.660;2022-11-15T16:05:27;8.80;99.90
42841;DHT22;28491;46.898;7.660;2022-11-15T16:07:52;8.70;99.90
42841;DHT22;28491;46.898;7.660;2022-11-15T16:10:24;8.70;99.90
42841;DHT22;28491;46.898;7.660;2022-11-15T16:12:51;8.70;99.90
42841;DHT22;28491;46.898;7.660;2022-11-15T16:15:17;8.60;99.90
42841;DHT22;28491;46.898;7.660;2022-11-15T16:17:57;8.60;99.90
42841;DHT22;28491;46.898;7.660;2022-11-15T16:20:44;8.60;99.90
42841;DHT22;28491;46.898;7.660;2022-11-15T16:23:14;8.60;99.90
42841;DHT22;28491;46.898;7.660;2022-11-15T16:25:49;8.60;99.90
42841;DHT22;28491;46.898;7.660;2022-11-15T16:28:29;8.60;99.90
42841;DHT22;28491;46.898;7.660;2022-11-15T16:31:03;8.50;99.90
42841;DHT22;28491;46.898;7.660;2022-11-15T16:33:29;8.50;99.90
42841;DHT22;28491;46.898;7.660;2022-11-15T16:35:55;8.50;99.90
42841;DHT22;28491;46.898;7.660;2022-11-15T16:38:21;8.50;99.90
42841;DHT22;28491;46.898;7.660;2022-11-15T16:40:46;8.40;99.90
42841;DHT22;28491;46.898;7.660;2022-11-15T16:43:12;8.40;99.90
42841;DHT22;28491;46.898;7.660;2022-11-15T16:45:38;8.40;99.90
42841;DHT22;28491;46.898;7.660;2022-11-15T16:48:04;8.40;99.90
42841;DHT22;28491;46.898;7.660;2022-11-15T16:50:32;8.40;99.90
42841;DHT22;28491;46.898;7.660;2022-11-15T16:52:59;8.30;99.90
42841;DHT22;28491;46.898;7.660;2022-11-15T16:55:28;8.30;99.90
42841;DHT22;28491;46.898;7.660;2022-11-15T16:57:55;8.40;99.90
42841;DHT22;28491;46.898;7.660;2022-11-15T17:00:22;8.30;99.90
42841;DHT22;28491;46.898;7.660;2022-11-15T17:02:49;8.30;99.90
42841;DHT22;28491;46.898;7.660;2022-11-15T17:05:17;8.30;99.90
42841;DHT22;28491;46.898;7.660;2022-11-15T17:07:45;8.30;99.90
42841;DHT22;28491;46.898;7.660;2022-11-15T17:10:11;8.30;99.90
42841;DHT22;28491;46.898;7.660;2022-11-15T17:12:37;8.20;99.90
42841;DHT22;28491;46.898;7.660;2022-11-15T17:15:03;8.10;99.90
42841;DHT22;28491;46.898;7.660;2022-11-15T17:17:30;8.10;99.90
42841;DHT22;28491;46.898;7.660;2022-11-15T17:19:56;8.10;99.90
42841;DHT22;28491;46.898;7.660;2022-11-15T17:22:22;8.00;99.90
42841;DHT22;28491;46.898;7.660;2022-11-15T17:24:47;8.00;99.90
42841;DHT22;28491;46.898;7.660;2022-11-15T17:27:13;7.90;99.90
42841;DHT22;28491;46.898;7.660;2022-11-15T17:29:40;7.90;99.90